createdAt,value
2019-05-22T00:01:51.523Z,1.90
2019-05-22T00:04:24.228Z,1.87
2019-05-22T00:06:57.143Z,2.50
2019-05-22T00:09:30.999Z,2.58
2019-05-22T00:12:03.915Z,1.82
2019-05-22T00:14:36.458Z,1.50
2019-05-22T00:17:09.189Z,4.60
2019-05-22T00:19:41.382Z,2.20
2019-05-22T00:22:13.967Z,2.17
2019-05-22T00:24:47.446Z,2.58
2019-05-22T00:27:19.956Z,1.60
2019-05-22T00:29:54.004Z,1.60
2019-05-22T00:32:25.820Z,2.70
2019-05-22T00:34:58.603Z,1.87
2019-05-22T00:37:30.006Z,2.25
2019-05-22T00:40:01.453Z,2.08
2019-05-22T00:42:33.062Z,3.25
2019-05-22T00:45:05.815Z,2.10
2019-05-22T00:47:37.355Z,1.95
2019-05-22T00:50:12.407Z,1.75
2019-05-22T00:52:48.967Z,1.87
2019-05-22T00:55:35.034Z,2.10
2019-05-22T00:58:07.101Z,4.30
2019-05-22T01:00:41.516Z,3.52
2019-05-22T01:03:15.103Z,2.12
2019-05-22T01:05:47.843Z,2.62
2019-05-22T01:08:18.822Z,2.22
2019-05-22T01:10:54.897Z,2.10
2019-05-22T01:13:30.014Z,1.70
2019-05-22T01:16:02.088Z,1.87
2019-05-22T01:18:33.250Z,1.70
2019-05-22T01:21:05.788Z,1.85
2019-05-22T01:23:36.962Z,2.22
2019-05-22T01:26:11.662Z,2.00
2019-05-22T01:28:43.716Z,2.08
2019-05-22T01:31:33.405Z,4.55
2019-05-22T01:34:08.896Z,5.03
2019-05-22T01:36:41.961Z,2.50
2019-05-22T01:39:18.678Z,2.60
2019-05-22T01:41:52.399Z,2.10
2019-05-22T01:44:24.893Z,5.42
2019-05-22T01:46:56.897Z,1.85
2019-05-22T01:49:28.045Z,2.45
2019-05-22T01:52:00.211Z,2.30
2019-05-22T01:54:31.589Z,2.58
2019-05-22T01:57:05.009Z,4.40
2019-05-22T01:59:37.053Z,4.08
2019-05-22T02:02:09.839Z,3.98
2019-05-22T02:04:41.272Z,3.40
2019-05-22T02:07:14.260Z,3.40
2019-05-22T02:09:48.422Z,4.45
2019-05-22T02:12:31.376Z,4.10
2019-05-22T02:15:03.453Z,9.35
2019-05-22T02:17:38.278Z,4.35
2019-05-22T02:20:09.605Z,5.83
2019-05-22T02:22:41.024Z,3.90
2019-05-22T02:25:14.293Z,8.45
2019-05-22T02:27:46.427Z,7.20
2019-05-22T02:30:21.476Z,4.53
2019-05-22T02:32:53.217Z,5.70
2019-05-22T02:35:25.758Z,7.70
2019-05-22T02:37:57.487Z,4.90
2019-05-22T02:40:33.464Z,14.05
2019-05-22T02:43:04.554Z,5.72
2019-05-22T02:45:35.730Z,8.00
2019-05-22T02:48:10.646Z,8.23
2019-05-22T02:50:42.233Z,9.80
2019-05-22T02:53:15.148Z,5.92
2019-05-22T02:55:46.920Z,10.93
2019-05-22T02:58:18.504Z,12.58
2019-05-22T03:01:03.043Z,13.50
2019-05-22T03:03:34.974Z,11.75
2019-05-22T03:06:12.486Z,19.80
2019-05-22T03:09:01.206Z,19.95
2019-05-22T03:11:52.462Z,15.53
2019-05-22T03:14:25.049Z,22.55
2019-05-22T03:17:03.652Z,17.73
2019-05-22T03:19:45.555Z,27.62
2019-05-22T03:22:26.958Z,26.57
2019-05-22T03:25:02.203Z,25.10
2019-05-22T03:27:40.066Z,26.50
2019-05-22T03:30:37.191Z,28.10
2019-05-22T03:33:11.485Z,35.65
2019-05-22T03:35:48.740Z,41.20
2019-05-22T03:38:21.496Z,41.37
2019-05-22T03:40:53.944Z,30.50
2019-05-22T03:43:29.280Z,32.80
2019-05-22T03:46:07.959Z,40.58
2019-05-22T03:48:39.280Z,35.65
2019-05-22T03:51:14.543Z,24.77
2019-05-22T03:53:47.080Z,28.67
2019-05-22T03:56:20.285Z,30.05
2019-05-22T03:58:52.117Z,29.70
2019-05-22T04:01:24.358Z,25.23
2019-05-22T04:03:55.729Z,25.50
2019-05-22T04:06:27.864Z,27.25
2019-05-22T04:09:04.913Z,21.60
2019-05-22T04:11:40.473Z,21.82
2019-05-22T04:14:12.021Z,27.60
2019-05-22T04:16:44.784Z,25.37
2019-05-22T04:19:17.155Z,34.70
2019-05-22T04:21:48.292Z,29.70
2019-05-22T04:24:20.840Z,26.17
2019-05-22T04:26:52.133Z,114.00
2019-05-22T04:29:23.777Z,30.20
2019-05-22T04:32:12.849Z,25.40
2019-05-22T04:34:45.159Z,25.02
2019-05-22T04:37:18.607Z,27.30
2019-05-22T04:39:51.318Z,27.00
2019-05-22T04:42:25.171Z,29.65
2019-05-22T04:45:16.211Z,34.53
2019-05-22T04:48:01.613Z,34.98
2019-05-22T04:50:33.460Z,43.20
2019-05-22T04:53:05.439Z,36.98
2019-05-22T04:55:36.811Z,38.33
2019-05-22T04:58:09.663Z,44.10
2019-05-22T05:00:41.228Z,62.62
2019-05-22T05:03:13.259Z,63.55
2019-05-22T05:05:48.762Z,73.05
2019-05-22T05:08:20.237Z,70.05
2019-05-22T05:10:55.614Z,60.95
2019-05-22T05:13:26.632Z,91.70
2019-05-22T05:15:57.786Z,102.27
2019-05-22T05:18:29.927Z,93.55
2019-05-22T05:21:00.914Z,83.25
2019-05-22T05:23:31.852Z,95.75
2019-05-22T05:26:03.432Z,77.50
2019-05-22T05:28:34.882Z,100.47
2019-05-22T05:31:06.170Z,107.47
2019-05-22T05:33:44.423Z,75.28
2019-05-22T05:36:15.925Z,88.58
2019-05-22T05:38:48.283Z,87.75
2019-05-22T05:41:19.366Z,66.90
2019-05-22T05:43:50.323Z,87.42
2019-05-22T05:46:21.298Z,61.37
2019-05-22T05:48:54.748Z,68.83
2019-05-22T05:51:27.697Z,60.00
2019-05-22T05:54:06.058Z,73.95
2019-05-22T05:56:39.383Z,59.73
2019-05-22T05:59:12.591Z,71.35
2019-05-22T06:01:48.021Z,67.70
2019-05-22T06:04:34.780Z,85.57
2019-05-22T06:07:19.970Z,85.47
2019-05-22T06:09:56.053Z,102.75
2019-05-22T06:12:27.506Z,105.22
2019-05-22T06:14:58.997Z,107.07
2019-05-22T06:18:10.728Z,121.82
2019-05-22T06:20:42.442Z,122.05
2019-05-22T06:23:29.729Z,110.42
2019-05-22T06:26:02.519Z,115.62
2019-05-22T06:28:39.312Z,140.28
2019-05-22T06:31:35.965Z,127.53
2019-05-22T06:34:07.701Z,114.05
2019-05-22T06:36:38.726Z,118.05
2019-05-22T06:39:10.475Z,126.35
2019-05-22T06:41:43.069Z,115.45
2019-05-22T06:44:35.269Z,103.30
2019-05-22T06:47:08.532Z,95.67
2019-05-22T06:49:41.204Z,96.85
2019-05-22T06:52:13.249Z,108.30
2019-05-22T06:54:44.603Z,106.78
2019-05-22T06:57:17.462Z,101.10
2019-05-22T07:00:10.801Z,100.75
2019-05-22T07:02:23.852Z,95.95
2019-05-22T07:04:55.572Z,89.65
2019-05-22T07:07:28.061Z,84.65
2019-05-22T07:09:59.141Z,81.47
2019-05-22T07:12:30.948Z,85.35
2019-05-22T07:15:11.087Z,80.97
2019-05-22T07:17:42.666Z,79.30
2019-05-22T07:20:15.771Z,69.30
2019-05-22T07:22:47.713Z,63.75
2019-05-22T07:25:20.198Z,67.60
2019-05-22T07:27:51.619Z,52.43
2019-05-22T07:30:23.559Z,67.75
2019-05-22T07:32:55.742Z,54.27
2019-05-22T07:35:45.644Z,60.12
2019-05-22T07:38:00.518Z,52.60
2019-05-22T07:40:32.408Z,53.42
2019-05-22T07:43:03.424Z,49.30
2019-05-22T07:45:36.725Z,45.30
2019-05-22T07:48:08.806Z,52.90
2019-05-22T07:50:48.067Z,47.93
2019-05-22T07:53:17.111Z,51.33
2019-05-22T07:55:51.148Z,44.67
2019-05-22T07:58:23.591Z,41.95
2019-05-22T08:00:56.743Z,42.83
2019-05-22T08:03:28.426Z,43.68
2019-05-22T08:06:00.203Z,47.58
2019-05-22T08:08:33.431Z,37.23
2019-05-22T08:11:05.771Z,34.67
2019-05-22T08:13:37.967Z,35.70
2019-05-22T08:16:10.751Z,31.70
2019-05-22T08:18:42.898Z,26.25
2019-05-22T08:21:14.010Z,26.90
2019-05-22T08:23:45.248Z,29.27
2019-05-22T08:26:16.922Z,28.05
2019-05-22T08:28:48.048Z,20.08
2019-05-22T08:31:21.299Z,24.65
2019-05-22T08:33:52.871Z,29.27
2019-05-22T08:36:24.353Z,30.75
2019-05-22T08:38:55.821Z,31.68
2019-05-22T08:41:31.339Z,30.27
2019-05-22T08:44:16.332Z,35.83
2019-05-22T08:46:37.691Z,33.65
2019-05-22T08:49:10.386Z,38.00
2019-05-22T08:51:41.332Z,29.95
2019-05-22T08:54:14.423Z,30.85
2019-05-22T08:56:48.918Z,33.78
2019-05-22T08:59:20.535Z,29.75
2019-05-22T09:01:52.235Z,26.10
2019-05-22T09:04:23.224Z,29.40
2019-05-22T09:06:54.181Z,25.20
2019-05-22T09:09:26.504Z,25.37
2019-05-22T09:11:57.974Z,25.90
2019-05-22T09:14:29.158Z,24.52
2019-05-22T09:17:00.362Z,29.18
2019-05-22T09:19:31.680Z,23.07
2019-05-22T09:22:02.948Z,22.90
2019-05-22T09:24:34.513Z,27.85
2019-05-22T09:27:05.849Z,26.65
2019-05-22T09:29:37.028Z,24.67
2019-05-22T09:32:08.560Z,24.63
2019-05-22T09:34:39.887Z,25.17
2019-05-22T09:37:10.882Z,23.55
2019-05-22T09:39:41.841Z,22.60
2019-05-22T09:42:13.234Z,21.37
2019-05-22T09:44:44.261Z,20.00
2019-05-22T09:47:15.415Z,17.82
2019-05-22T09:49:46.479Z,16.95
2019-05-22T09:52:17.470Z,19.67
2019-05-22T09:54:48.423Z,16.90
2019-05-22T09:57:19.417Z,17.35
2019-05-22T09:59:50.382Z,21.55
2019-05-22T10:02:21.859Z,22.22
2019-05-22T10:04:53.217Z,21.60
2019-05-22T10:07:24.504Z,23.87
2019-05-22T10:09:55.467Z,23.67
2019-05-22T10:12:26.449Z,24.05
2019-05-22T10:14:57.932Z,22.25
2019-05-22T10:17:29.120Z,35.05
2019-05-22T10:20:00.976Z,28.35
2019-05-22T10:22:35.625Z,26.40
2019-05-22T10:25:15.893Z,25.43
2019-05-22T10:27:42.873Z,37.95
2019-05-22T10:30:18.601Z,32.03
2019-05-22T10:32:50.313Z,31.05
2019-05-22T10:35:27.252Z,37.25
2019-05-22T10:37:59.002Z,25.37
2019-05-22T10:40:29.965Z,20.55
2019-05-22T10:43:01.052Z,25.27
2019-05-22T10:45:31.998Z,32.33
2019-05-22T10:48:03.594Z,37.05
2019-05-22T10:50:35.323Z,18.52
2019-05-22T10:53:06.689Z,26.82
2019-05-22T10:55:37.837Z,23.35
2019-05-22T10:58:09.241Z,25.57
2019-05-22T11:00:40.267Z,22.85
2019-05-22T11:03:12.151Z,28.98
2019-05-22T11:05:43.500Z,23.95
2019-05-22T11:08:14.679Z,31.17
2019-05-22T11:10:46.843Z,23.98
2019-05-22T11:13:18.029Z,24.55
2019-05-22T11:15:49.683Z,28.38
2019-05-22T11:18:20.666Z,26.60
2019-05-22T11:20:52.949Z,27.02
2019-05-22T11:23:25.327Z,27.70
2019-05-22T11:25:56.481Z,26.20
2019-05-22T11:28:28.258Z,24.85
2019-05-22T11:30:59.311Z,33.53
2019-05-22T11:33:34.246Z,27.50
2019-05-22T11:36:04.877Z,26.30
2019-05-22T11:38:35.962Z,26.68
2019-05-22T11:41:08.017Z,23.15
2019-05-22T11:43:39.412Z,28.70
2019-05-22T11:46:10.389Z,26.80
2019-05-22T11:48:41.335Z,46.25
2019-05-22T11:51:12.540Z,33.08
2019-05-22T11:53:43.710Z,31.65
2019-05-22T11:56:14.857Z,36.80
2019-05-22T11:58:46.112Z,30.05
2019-05-22T12:01:17.614Z,27.60
2019-05-22T12:03:49.571Z,30.45
2019-05-22T12:06:20.543Z,24.80
2019-05-22T12:08:52.101Z,29.72
2019-05-22T12:11:23.790Z,29.18
2019-05-22T12:13:55.842Z,37.35
2019-05-22T12:16:27.626Z,33.33
2019-05-22T12:18:59.215Z,26.20
2019-05-22T12:21:30.682Z,29.57
2019-05-22T12:24:01.741Z,28.73
2019-05-22T12:26:33.026Z,29.43
2019-05-22T12:29:04.089Z,26.02
2019-05-22T12:31:35.069Z,28.17
2019-05-22T12:34:06.846Z,36.80
2019-05-22T12:36:38.056Z,31.10
2019-05-22T12:39:11.567Z,46.10
2019-05-22T12:41:42.752Z,34.67
2019-05-22T12:44:14.822Z,44.20
2019-05-22T12:46:45.802Z,48.90
2019-05-22T12:49:18.150Z,43.40
2019-05-22T12:51:49.372Z,37.20
2019-05-22T12:54:20.484Z,40.25
2019-05-22T12:56:52.489Z,39.20
2019-05-22T12:59:25.423Z,46.98
2019-05-22T13:01:59.306Z,38.55
2019-05-22T13:04:32.081Z,45.55
2019-05-22T13:07:03.462Z,35.92
2019-05-22T13:09:35.093Z,37.50
2019-05-22T13:12:06.955Z,34.92
2019-05-22T13:14:38.473Z,33.20
2019-05-22T13:17:10.809Z,32.75
2019-05-22T13:19:43.844Z,30.57
2019-05-22T13:22:16.694Z,31.47
2019-05-22T13:24:48.641Z,31.70
2019-05-22T13:27:22.832Z,49.23
2019-05-22T13:29:54.009Z,28.80
2019-05-22T13:32:26.656Z,29.13
2019-05-22T13:34:58.031Z,27.37
2019-05-22T13:37:29.296Z,27.87
2019-05-22T13:40:00.488Z,27.20
2019-05-22T13:42:32.717Z,24.50
2019-05-22T13:45:04.404Z,26.33
2019-05-22T13:47:35.502Z,23.90
2019-05-22T13:50:09.453Z,22.90
2019-05-22T13:52:41.604Z,23.00
2019-05-22T13:55:14.673Z,24.40
2019-05-22T13:57:45.849Z,27.90
2019-05-22T14:00:19.745Z,30.73
2019-05-22T14:02:51.350Z,23.60
2019-05-22T14:05:22.497Z,29.80
2019-05-22T14:07:53.737Z,99.87
2019-05-22T14:10:28.324Z,28.20
2019-05-22T14:12:59.414Z,36.63
2019-05-22T14:15:47.805Z,28.60
2019-05-22T14:18:05.279Z,25.00
2019-05-22T14:20:36.906Z,30.00
2019-05-22T14:23:08.246Z,28.53
2019-05-22T14:25:39.598Z,30.70
2019-05-22T14:28:12.497Z,30.13
2019-05-22T14:30:44.309Z,36.23
2019-05-22T14:33:15.729Z,36.90
2019-05-22T14:35:49.298Z,30.25
2019-05-22T14:38:19.996Z,48.85
2019-05-22T14:40:51.288Z,30.50
2019-05-22T14:43:22.380Z,33.15
2019-05-22T14:45:53.929Z,35.63
2019-05-22T14:48:25.243Z,37.25
2019-05-22T14:50:56.941Z,36.08
2019-05-22T14:53:28.331Z,43.17
2019-05-22T14:56:01.793Z,29.63
2019-05-22T14:58:32.945Z,32.10
2019-05-22T15:01:03.937Z,31.20
2019-05-22T15:03:34.897Z,33.33
2019-05-22T15:06:07.115Z,33.47
2019-05-22T15:08:38.072Z,30.90
2019-05-22T15:11:09.980Z,29.70
2019-05-22T15:13:42.530Z,28.87
2019-05-22T15:16:14.751Z,26.50
2019-05-22T15:18:45.822Z,29.00
2019-05-22T15:21:17.616Z,26.63
2019-05-22T15:23:49.069Z,32.07
2019-05-22T15:26:20.446Z,33.47
2019-05-22T15:28:52.233Z,28.33
2019-05-22T15:31:23.545Z,30.90
2019-05-22T15:33:54.713Z,34.60
2019-05-22T15:36:26.366Z,34.50
2019-05-22T15:38:57.645Z,35.20
2019-05-22T15:41:29.151Z,38.40
2019-05-22T15:44:01.266Z,38.88
2019-05-22T15:46:34.460Z,29.60
2019-05-22T15:49:06.706Z,43.75
2019-05-22T15:51:39.096Z,59.38
2019-05-22T15:54:12.082Z,38.83
2019-05-22T15:56:43.277Z,60.05
2019-05-22T15:59:15.232Z,45.85
2019-05-22T16:01:47.925Z,35.95
2019-05-22T16:04:21.155Z,58.83
2019-05-22T16:06:53.358Z,28.75
2019-05-22T16:09:25.709Z,31.20
2019-05-22T16:11:57.461Z,53.20
2019-05-22T16:14:30.033Z,31.73
2019-05-22T16:17:04.095Z,34.95
2019-05-22T16:19:36.299Z,26.87
2019-05-22T16:22:09.109Z,25.92
2019-05-22T16:24:41.459Z,21.00
2019-05-22T16:27:14.448Z,26.68
2019-05-22T16:29:46.298Z,29.57
2019-05-22T16:32:19.150Z,27.75
2019-05-22T16:34:50.859Z,21.62
2019-05-22T16:37:22.054Z,23.85
2019-05-22T16:39:53.346Z,25.85
2019-05-22T16:42:24.725Z,22.73
2019-05-22T16:44:55.714Z,21.52
2019-05-22T16:47:27.682Z,29.37
2019-05-22T16:49:59.779Z,34.48
2019-05-22T16:52:31.038Z,29.12
2019-05-22T16:55:03.869Z,26.17
2019-05-22T16:57:35.477Z,24.80
2019-05-22T17:00:10.796Z,27.90
2019-05-22T17:02:42.430Z,31.68
2019-05-22T17:05:15.316Z,33.23
2019-05-22T17:07:46.397Z,23.22
2019-05-22T17:10:18.004Z,29.75
2019-05-22T17:12:50.828Z,40.90
2019-05-22T17:15:24.415Z,20.37
2019-05-22T17:17:56.154Z,20.30
2019-05-22T17:20:29.118Z,24.40
2019-05-22T17:23:00.713Z,15.95
2019-05-22T17:25:32.401Z,25.48
2019-05-22T17:28:06.907Z,19.37
2019-05-22T17:30:38.829Z,16.77
2019-05-22T17:33:10.261Z,12.35
2019-05-22T17:35:41.740Z,25.40
2019-05-22T17:38:12.889Z,12.60
2019-05-22T17:40:44.893Z,12.80
2019-05-22T17:43:16.451Z,10.72
2019-05-22T17:45:48.047Z,13.03
2019-05-22T17:48:20.082Z,17.70
2019-05-22T17:50:51.189Z,15.60
2019-05-22T17:53:22.556Z,24.12
2019-05-22T17:55:53.667Z,30.65
2019-05-22T17:58:29.490Z,28.38
2019-05-22T18:00:59.043Z,16.73
2019-05-22T18:03:30.763Z,45.12
2019-05-22T18:06:01.764Z,16.45
2019-05-22T18:08:32.922Z,17.62
2019-05-22T18:11:07.587Z,25.65
2019-05-22T18:13:57.869Z,66.05
2019-05-22T18:16:29.337Z,24.37
2019-05-22T18:19:00.488Z,12.60
2019-05-22T18:21:32.503Z,33.50
2019-05-22T18:24:04.060Z,16.73
2019-05-22T18:26:35.146Z,10.45
2019-05-22T18:29:06.253Z,13.10
2019-05-22T18:31:37.441Z,17.00
2019-05-22T18:34:08.487Z,20.37
2019-05-22T18:36:39.560Z,12.28
2019-05-22T18:39:12.071Z,12.85
2019-05-22T18:41:43.050Z,27.77
2019-05-22T18:44:14.244Z,104.53
2019-05-22T18:46:45.192Z,10.38
2019-05-22T18:49:16.402Z,12.20
2019-05-22T18:51:47.425Z,37.83
2019-05-22T18:54:19.164Z,40.60
2019-05-22T18:56:50.226Z,10.75
2019-05-22T18:59:21.234Z,17.60
2019-05-22T19:01:52.552Z,17.85
2019-05-22T19:04:23.534Z,12.25
2019-05-22T19:06:55.991Z,15.15
2019-05-22T19:09:27.268Z,12.75
2019-05-22T19:11:58.243Z,16.62
2019-05-22T19:14:29.325Z,69.30
2019-05-22T19:17:00.385Z,11.68
2019-05-22T19:19:31.564Z,14.13
2019-05-22T19:22:02.719Z,13.90
2019-05-22T19:24:33.837Z,11.53
2019-05-22T19:27:04.786Z,11.85
2019-05-22T19:29:35.773Z,14.60
2019-05-22T19:32:06.863Z,11.65
2019-05-22T19:34:37.996Z,20.55
2019-05-22T19:37:09.092Z,14.83
2019-05-22T19:39:40.274Z,15.05
2019-05-22T19:42:11.227Z,18.42
2019-05-22T19:44:42.504Z,12.18
2019-05-22T19:47:14.707Z,13.78
2019-05-22T19:49:45.746Z,18.05
2019-05-22T19:52:22.565Z,18.70
2019-05-22T19:54:53.802Z,24.70
2019-05-22T19:57:25.243Z,20.10
2019-05-22T19:59:56.586Z,21.73
2019-05-22T20:02:28.279Z,19.73
2019-05-22T20:04:59.667Z,23.75
2019-05-22T20:07:32.437Z,23.42
2019-05-22T20:10:05.488Z,30.17
2019-05-22T20:12:36.787Z,28.87
2019-05-22T20:15:10.314Z,27.70
2019-05-22T20:17:41.453Z,30.48
2019-05-22T20:20:15.511Z,25.12
2019-05-22T20:22:48.048Z,25.72
2019-05-22T20:25:20.781Z,24.98
2019-05-22T20:27:52.045Z,27.45
2019-05-22T20:30:24.921Z,25.40
2019-05-22T20:32:56.630Z,27.77
2019-05-22T20:35:28.620Z,36.17
2019-05-22T20:38:00.971Z,24.98
2019-05-22T20:40:32.611Z,31.05
2019-05-22T20:43:04.078Z,31.25
2019-05-22T20:45:36.163Z,22.62
2019-05-22T20:48:12.629Z,29.65
2019-05-22T20:50:44.968Z,31.48
2019-05-22T20:53:17.664Z,37.30
2019-05-22T20:55:49.770Z,30.40
2019-05-22T20:58:23.524Z,33.25
2019-05-22T21:00:55.624Z,34.25
2019-05-22T21:03:26.709Z,32.63
2019-05-22T21:06:00.342Z,35.13
2019-05-22T21:08:32.178Z,32.38
2019-05-22T21:11:04.916Z,32.00
2019-05-22T21:13:35.889Z,40.98
2019-05-22T21:16:08.262Z,42.50
2019-05-22T21:18:44.360Z,43.08
2019-05-22T21:21:16.685Z,40.08
2019-05-22T21:23:47.898Z,44.15
2019-05-22T21:26:20.908Z,36.98
2019-05-22T21:28:52.643Z,44.42
2019-05-22T21:31:24.997Z,44.38
2019-05-22T21:33:57.126Z,45.83
2019-05-22T21:36:29.167Z,41.18
2019-05-22T21:39:00.735Z,48.05
2019-05-22T21:41:31.922Z,52.00
2019-05-22T21:44:03.236Z,43.35
2019-05-22T21:46:36.233Z,45.00
2019-05-22T21:49:08.781Z,48.30
2019-05-22T21:51:39.717Z,51.92
2019-05-22T21:54:11.896Z,61.60
2019-05-22T21:56:44.995Z,50.17
2019-05-22T21:59:17.028Z,43.65
2019-05-22T22:01:55.804Z,60.70
2019-05-22T22:04:28.689Z,54.18
2019-05-22T22:06:59.991Z,52.67
2019-05-22T22:09:32.207Z,56.70
2019-05-22T22:12:03.399Z,65.20
2019-05-22T22:14:34.656Z,55.23
2019-05-22T22:17:05.609Z,63.25
2019-05-22T22:19:37.322Z,64.22
2019-05-22T22:22:12.373Z,53.98
2019-05-22T22:24:43.697Z,44.88
2019-05-22T22:27:15.189Z,43.90
2019-05-22T22:29:46.259Z,39.08
2019-05-22T22:32:18.998Z,45.28
2019-05-22T22:34:52.639Z,40.00
2019-05-22T22:37:24.929Z,48.92
2019-05-22T22:39:56.888Z,56.98
2019-05-22T22:42:29.863Z,48.13
2019-05-22T22:45:01.382Z,58.28
2019-05-22T22:47:35.712Z,61.85
2019-05-22T22:50:09.892Z,51.23
2019-05-22T22:52:42.868Z,46.10
2019-05-22T22:55:17.567Z,54.50
2019-05-22T22:57:49.777Z,60.25
2019-05-22T23:00:24.186Z,52.50
2019-05-22T23:02:57.281Z,57.40
2019-05-22T23:05:28.709Z,50.80
2019-05-22T23:08:01.400Z,48.00
2019-05-22T23:10:32.884Z,56.35
2019-05-22T23:13:07.036Z,49.90
2019-05-22T23:15:41.359Z,48.48
2019-05-22T23:18:15.740Z,44.03
2019-05-22T23:20:45.763Z,43.90
2019-05-22T23:23:15.326Z,47.13
2019-05-22T23:25:47.209Z,50.50
2019-05-22T23:28:33.637Z,38.20
2019-05-22T23:30:52.293Z,44.77
2019-05-22T23:33:24.117Z,55.40
2019-05-22T23:35:56.340Z,59.08
2019-05-22T23:38:28.412Z,61.28
2019-05-22T23:41:00.093Z,61.88
2019-05-22T23:43:32.470Z,60.52
2019-05-22T23:46:05.872Z,61.02
2019-05-22T23:48:38.490Z,52.85
2019-05-22T23:51:10.539Z,63.58
2019-05-22T23:53:42.313Z,91.80
2019-05-22T23:56:14.366Z,90.05
2019-05-22T23:58:52.725Z,105.85
